createdAt,value
2022-12-18T00:02:02.116Z,101696.63
2022-12-18T00:04:29.776Z,101662.66
2022-12-18T00:06:57.248Z,101701.88
2022-12-18T00:09:24.835Z,101705.38
2022-12-18T00:11:52.517Z,101699.22
2022-12-18T00:14:19.995Z,101701.88
2022-12-18T00:16:48.773Z,101707.09
2022-12-18T00:19:16.227Z,101674.03
2022-12-18T00:21:43.856Z,101667.91
2022-12-18T00:24:11.453Z,101726.38
2022-12-18T00:26:39.700Z,101720.25
2022-12-18T00:29:08.503Z,101722.88
2022-12-18T00:31:36.051Z,101717.63
2022-12-18T00:34:04.883Z,101715.88
2022-12-18T00:36:33.350Z,101693.25
2022-12-18T00:41:36.628Z,101712.38
2022-12-18T00:44:04.223Z,101706.25
2022-12-18T00:46:31.727Z,101715.88
2022-12-18T00:48:59.167Z,101705.38
2022-12-18T00:51:28.225Z,101715.91
2022-12-18T00:53:55.688Z,101709.75
2022-12-18T00:56:23.156Z,101730.78
2022-12-18T00:58:50.636Z,101726.41
2022-12-18T01:01:18.317Z,101719.47
2022-12-18T01:03:46.061Z,101733.41
2022-12-18T01:06:14.497Z,101722.91
2022-12-18T01:08:43.376Z,101655.75
2022-12-18T01:11:11.150Z,101718.53
2022-12-18T01:13:38.978Z,101727.31
2022-12-18T01:16:06.967Z,101726.41
2022-12-18T01:18:34.445Z,101727.31
2022-12-18T01:21:01.897Z,101729.06
2022-12-18T01:23:29.348Z,101726.44
2022-12-18T01:25:59.017Z,101722.09
2022-12-18T01:28:26.461Z,101717.69
2022-12-18T01:30:53.883Z,101716.84
2022-12-18T01:33:21.325Z,101719.47
2022-12-18T01:35:48.763Z,101715.94
2022-12-18T01:38:16.228Z,101715.06
2022-12-18T01:40:43.659Z,101720.31
2022-12-18T01:43:12.475Z,101729.97
2022-12-18T01:45:40.142Z,101722.09
2022-12-18T01:48:08.269Z,101734.34
2022-12-18T01:50:37.595Z,101732.63
2022-12-18T01:53:07.481Z,101730.91
2022-12-18T01:55:38.168Z,101648.06
2022-12-18T01:58:05.657Z,101723.91
2022-12-18T02:00:34.445Z,101726.53
2022-12-18T02:03:01.981Z,101721.28
2022-12-18T02:05:37.208Z,101705.56
2022-12-18T02:08:09.936Z,101720.38
2022-12-18T02:10:39.882Z,101723.91
2022-12-18T02:13:10.661Z,101721.34
2022-12-18T02:15:41.306Z,101718.69
2022-12-18T02:18:09.928Z,101708.22
2022-12-18T02:20:38.438Z,101717.78
2022-12-18T02:23:10.994Z,101712.56
2022-12-18T02:25:53.873Z,101718.69
2022-12-18T02:28:21.999Z,101721.34
2022-12-18T02:30:49.803Z,101695.19
2022-12-18T02:33:17.344Z,101721.34
2022-12-18T02:35:44.765Z,101719.59
2022-12-18T02:38:12.207Z,101720.44
2022-12-18T02:40:39.629Z,101713.44
2022-12-18T02:43:10.984Z,101710.84
2022-12-18T02:45:47.452Z,101714.34
2022-12-18T02:48:14.941Z,101703.88
2022-12-18T02:50:46.244Z,101670.72
2022-12-18T02:53:16.783Z,101677.72
2022-12-18T02:55:50.715Z,101711.72
2022-12-18T02:58:20.761Z,101698.63
2022-12-18T03:00:50.626Z,101692.47
2022-12-18T03:03:20.657Z,101691.59
2022-12-18T03:05:49.728Z,101698.59
2022-12-18T03:08:18.173Z,101691.63
2022-12-18T03:10:49.241Z,101692.50
2022-12-18T03:13:20.461Z,101690.75
2022-12-18T03:15:49.040Z,101663.72
2022-12-18T03:18:18.206Z,101685.50
2022-12-18T03:20:46.022Z,101688.13
2022-12-18T03:23:14.487Z,101693.38
2022-12-18T03:25:46.085Z,101698.69
2022-12-18T03:28:14.931Z,101669.03
2022-12-18T03:30:43.807Z,101709.13
2022-12-18T03:33:13.910Z,101672.53
2022-12-18T03:35:43.696Z,101692.56
2022-12-18T03:38:11.404Z,101716.13
2022-12-18T03:40:45.468Z,101712.63
2022-12-18T03:43:14.565Z,101705.66
2022-12-18T03:45:46.749Z,101686.47
2022-12-18T03:48:16.805Z,101719.66
2022-12-18T03:50:47.232Z,101729.28
2022-12-18T03:53:20.224Z,101693.47
2022-12-18T03:55:47.660Z,101682.13
2022-12-18T03:58:16.101Z,101691.72
2022-12-18T04:00:44.881Z,101700.41
2022-12-18T04:03:12.349Z,101710.00
2022-12-18T04:05:39.828Z,101711.78
2022-12-18T04:08:07.316Z,101710.03
2022-12-18T04:10:34.740Z,101709.19
2022-12-18T04:13:02.221Z,101708.28
2022-12-18T04:15:29.690Z,101710.91
2022-12-18T04:17:58.481Z,101722.28
2022-12-18T04:20:25.918Z,101709.19
2022-12-18T04:22:53.397Z,101723.16
2022-12-18T04:25:20.831Z,101726.66
2022-12-18T04:27:48.267Z,101722.28
2022-12-18T04:30:15.807Z,101716.16
2022-12-18T04:32:46.507Z,101720.53
2022-12-18T04:35:18.022Z,101716.19
2022-12-18T04:37:45.455Z,101718.78
2022-12-18T04:40:13.959Z,101717.91
2022-12-18T04:42:41.508Z,101724.03
2022-12-18T04:45:10.079Z,101723.16
2022-12-18T04:47:37.521Z,101721.44
2022-12-18T04:50:05.637Z,101731.03
2022-12-18T04:52:35.507Z,101740.69
2022-12-18T04:55:03.055Z,101736.28
2022-12-18T04:57:30.505Z,101738.91
2022-12-18T04:59:58.017Z,101736.31
2022-12-18T05:02:25.551Z,101729.31
2022-12-18T05:04:53.117Z,101728.44
2022-12-18T05:07:20.549Z,101726.69
2022-12-18T05:09:49.345Z,101726.69
2022-12-18T05:12:16.812Z,101732.84
2022-12-18T05:14:44.256Z,101731.94
2022-12-18T05:17:11.708Z,101735.44
2022-12-18T05:19:39.231Z,101736.31
2022-12-18T05:22:09.680Z,101731.06
2022-12-18T05:24:37.410Z,101729.31
2022-12-18T05:27:06.173Z,101723.19
2022-12-18T05:29:33.623Z,101717.94
2022-12-18T05:32:01.044Z,101716.22
2022-12-18T05:34:28.488Z,101716.22
2022-12-18T05:36:55.915Z,101700.50
2022-12-18T05:39:23.387Z,101721.47
2022-12-18T05:41:50.841Z,101719.72
2022-12-18T05:44:19.637Z,101732.84
2022-12-18T05:46:47.087Z,101729.34
2022-12-18T05:49:14.549Z,101738.94
2022-12-18T05:51:42.009Z,101725.00
2022-12-18T05:54:10.174Z,101745.13
2022-12-18T05:56:37.791Z,101738.97
2022-12-18T05:59:05.250Z,101744.22
2022-12-18T06:01:34.058Z,101749.47
2022-12-18T06:04:01.600Z,101749.47
2022-12-18T06:06:29.653Z,101757.38
2022-12-18T06:08:58.373Z,101750.38
2022-12-18T06:11:26.784Z,101743.38
2022-12-18T06:13:58.154Z,101744.22
2022-12-18T06:16:26.757Z,101744.22
2022-12-18T06:18:55.624Z,101739.00
2022-12-18T06:21:23.123Z,101738.13
2022-12-18T06:23:50.553Z,101725.91
2022-12-18T06:26:18.844Z,101738.16
2022-12-18T06:28:48.509Z,101735.50
2022-12-18T06:31:15.995Z,101732.00
2022-12-18T06:33:43.583Z,101744.25
2022-12-18T06:36:13.395Z,101711.97
2022-12-18T06:38:43.190Z,101708.47
2022-12-18T06:41:10.878Z,101739.00
2022-12-18T06:43:38.672Z,101740.81
2022-12-18T06:46:06.796Z,101751.28
2022-12-18T06:48:34.332Z,101751.28
2022-12-18T06:51:01.779Z,101757.41
2022-12-18T06:53:30.630Z,101726.00
2022-12-18T06:56:07.891Z,101767.03
2022-12-18T06:58:37.209Z,101773.16
2022-12-18T07:01:05.589Z,101768.78
2022-12-18T07:03:33.098Z,101768.78
2022-12-18T07:06:00.549Z,101761.84
2022-12-18T07:08:27.984Z,101767.06
2022-12-18T07:10:56.852Z,101771.44
2022-12-18T07:13:24.335Z,101770.53
2022-12-18T07:15:51.819Z,101775.78
2022-12-18T07:18:19.248Z,101778.44
2022-12-18T07:20:46.752Z,101779.31
2022-12-18T07:23:15.295Z,101790.69
2022-12-18T07:25:42.765Z,101792.44
2022-12-18T07:28:17.332Z,101793.31
2022-12-18T07:30:45.172Z,101795.94
2022-12-18T07:33:12.649Z,101795.06
2022-12-18T07:35:40.131Z,101797.69
2022-12-18T07:38:07.841Z,101803.81
2022-12-18T07:40:35.329Z,101794.19
2022-12-18T07:43:02.838Z,101788.91
2022-12-18T07:45:31.707Z,101771.44
2022-12-18T07:47:59.196Z,101768.81
2022-12-18T07:50:26.664Z,101770.53
2022-12-18T07:52:54.123Z,101779.31
2022-12-18T07:55:21.581Z,101765.28
2022-12-18T07:57:51.274Z,101772.31
2022-12-18T08:00:20.180Z,101777.53
2022-12-18T08:02:50.314Z,101777.53
2022-12-18T08:05:18.121Z,101778.41
2022-12-18T08:07:45.747Z,101777.53
2022-12-18T08:10:13.191Z,101778.41
2022-12-18T08:12:40.685Z,101773.16
2022-12-18T08:15:08.826Z,101786.28
2022-12-18T08:17:36.330Z,101781.91
2022-12-18T08:20:05.479Z,101782.78
2022-12-18T08:22:33.017Z,101780.16
2022-12-18T08:25:00.503Z,101768.78
2022-12-18T08:27:29.733Z,101774.03
2022-12-18T08:29:57.565Z,101773.13
2022-12-18T08:32:25.078Z,101767.88
2022-12-18T08:34:52.626Z,101759.13
2022-12-18T08:37:21.440Z,101761.72
2022-12-18T08:39:48.885Z,101754.69
2022-12-18T08:42:34.139Z,101745.06
2022-12-18T08:45:01.581Z,101747.66
2022-12-18T08:47:29.029Z,101742.38
2022-12-18T08:49:56.590Z,101734.50
2022-12-18T08:52:25.358Z,101749.34
2022-12-18T08:54:52.863Z,101750.25
2022-12-18T08:57:20.354Z,101740.66
2022-12-18T08:59:47.796Z,101751.97
2022-12-18T09:02:15.343Z,101747.59
2022-12-18T09:04:42.961Z,101751.13
2022-12-18T09:07:10.439Z,101749.34
2022-12-18T09:09:39.248Z,101754.59
2022-12-18T09:12:06.782Z,101754.59
2022-12-18T09:14:34.237Z,101764.22
2022-12-18T09:17:01.810Z,101763.34
2022-12-18T09:19:29.469Z,101766.84
2022-12-18T09:21:56.980Z,101764.22
2022-12-18T09:24:24.452Z,101755.44
2022-12-18T09:26:58.106Z,101748.44
2022-12-18T09:29:25.668Z,101746.66
2022-12-18T09:31:53.168Z,101748.41
2022-12-18T09:34:21.888Z,101757.13
2022-12-18T09:36:49.959Z,101754.50
2022-12-18T09:39:18.026Z,101748.41
2022-12-18T09:41:48.685Z,101722.22
2022-12-18T09:44:21.937Z,101740.50
2022-12-18T09:46:54.473Z,101722.25
2022-12-18T09:49:23.977Z,101746.59
2022-12-18T09:51:52.764Z,101736.97
2022-12-18T09:54:22.228Z,101712.56
2022-12-18T09:56:49.802Z,101715.13
2022-12-18T09:59:23.304Z,101700.34
2022-12-18T10:01:51.014Z,101736.94
2022-12-18T10:04:18.773Z,101743.09
2022-12-18T10:06:49.050Z,101752.72
2022-12-18T10:09:19.365Z,101762.31
2022-12-18T10:11:49.339Z,101746.56
2022-12-18T10:14:19.211Z,101736.91
2022-12-18T10:16:55.038Z,101730.75
2022-12-18T10:19:34.908Z,101728.13
2022-12-18T10:22:05.342Z,101707.19
2022-12-18T10:24:35.849Z,101731.59
2022-12-18T10:27:12.790Z,101731.56
2022-12-18T10:29:40.240Z,101727.19
2022-12-18T10:32:10.950Z,101734.16
2022-12-18T10:34:38.880Z,101734.13
2022-12-18T10:37:08.127Z,101715.78
2022-12-18T10:39:35.692Z,101717.47
2022-12-18T10:42:12.304Z,101714.78
2022-12-18T10:44:39.764Z,101707.78
2022-12-18T10:47:13.185Z,101644.91
2022-12-18T10:49:42.378Z,101669.25
2022-12-18T10:52:15.993Z,101685.66
2022-12-18T10:54:48.803Z,101673.31
2022-12-18T10:57:17.078Z,101674.16
2022-12-18T10:59:52.226Z,101682.00
2022-12-18T11:02:28.739Z,101646.16
2022-12-18T11:04:56.412Z,101675.69
2022-12-18T11:07:23.976Z,101665.16
2022-12-18T11:10:01.673Z,101661.53
2022-12-18T11:12:30.285Z,101629.34
2022-12-18T11:14:58.482Z,101665.84
2022-12-18T11:17:31.019Z,101651.78
2022-12-18T11:19:58.983Z,101615.13
2022-12-18T11:22:28.530Z,101636.81
2022-12-18T11:27:51.611Z,101622.84
2022-12-18T11:30:23.799Z,101597.59
2022-12-18T11:32:53.122Z,101614.97
2022-12-18T11:35:22.632Z,101636.81
2022-12-18T11:37:52.404Z,101587.16
2022-12-18T11:40:21.560Z,101616.66
2022-12-18T11:42:52.042Z,101603.50
2022-12-18T11:45:35.163Z,101605.28
2022-12-18T11:48:06.582Z,101571.38
2022-12-18T11:50:39.934Z,101580.00
2022-12-18T11:53:11.855Z,101590.34
2022-12-18T11:55:42.074Z,101576.34
2022-12-18T11:58:11.802Z,101561.47
2022-12-18T12:00:42.296Z,101562.34
2022-12-18T12:03:22.202Z,101564.97
2022-12-18T12:05:56.587Z,101566.72
2022-12-18T12:08:26.040Z,101552.91
2022-12-18T12:10:57.385Z,101557.09
2022-12-18T12:13:31.139Z,101557.09
2022-12-18T12:16:08.172Z,101526.69
2022-12-18T12:18:43.099Z,101554.44
2022-12-18T12:21:13.901Z,101517.81
2022-12-18T12:23:43.850Z,101534.28
2022-12-18T12:26:12.014Z,101536.97
2022-12-18T12:28:54.090Z,101526.44
2022-12-18T12:31:26.616Z,101473.38
2022-12-18T12:33:58.877Z,101483.75
2022-12-18T12:36:28.466Z,101518.56
2022-12-18T12:38:56.849Z,101525.50
2022-12-18T12:41:43.387Z,101514.00
2022-12-18T12:44:25.005Z,101513.94
2022-12-18T12:46:52.511Z,101515.72
2022-12-18T12:49:25.467Z,101516.59
2022-12-18T12:51:55.396Z,101519.28
2022-12-18T12:54:25.501Z,101521.97
2022-12-18T12:56:54.400Z,101529.88
2022-12-18T12:59:25.452Z,101528.16
2022-12-18T13:01:55.409Z,101530.81
2022-12-18T13:04:32.757Z,101521.19
2022-12-18T13:07:01.951Z,101515.03
2022-12-18T13:09:32.198Z,101515.91
2022-12-18T13:12:21.744Z,101512.44
2022-12-18T13:14:49.253Z,101512.44
2022-12-18T13:17:18.597Z,101484.69
2022-12-18T13:19:50.344Z,101519.47
2022-12-18T13:22:24.681Z,101519.47
2022-12-18T13:24:52.610Z,101526.53
2022-12-18T13:27:56.713Z,101524.75
2022-12-18T13:30:48.321Z,101510.78
2022-12-18T13:36:37.988Z,101500.28
2022-12-18T13:39:35.247Z,101487.13
2022-12-18T13:42:58.216Z,101491.50
2022-12-18T13:45:46.248Z,101483.63
2022-12-18T13:48:23.550Z,101487.13
2022-12-18T13:50:59.289Z,101481.91
2022-12-18T13:53:29.770Z,101479.28
2022-12-18T13:55:57.515Z,101477.50
2022-12-18T13:58:24.955Z,101471.38
2022-12-18T14:00:52.466Z,101389.63
2022-12-18T14:03:22.662Z,101380.94
2022-12-18T14:05:54.924Z,101469.63
2022-12-18T14:08:22.368Z,101467.88
2022-12-18T14:10:51.933Z,101465.22
2022-12-18T14:13:22.185Z,101453.00
2022-12-18T14:15:50.146Z,101442.47
2022-12-18T14:18:21.610Z,101442.47
2022-12-18T14:20:52.916Z,101389.50
2022-12-18T14:23:29.210Z,101438.03
2022-12-18T14:26:02.221Z,101395.50
2022-12-18T14:28:32.838Z,101442.47
2022-12-18T14:31:00.478Z,101444.22
2022-12-18T14:33:28.917Z,101445.13
2022-12-18T14:35:58.401Z,101445.97
2022-12-18T14:38:30.421Z,101461.78
2022-12-18T14:41:01.392Z,101450.47
2022-12-18T14:43:29.668Z,101447.97
2022-12-18T14:45:57.354Z,101407.09
2022-12-18T14:48:34.786Z,101461.78
2022-12-18T14:51:03.285Z,101457.41
2022-12-18T14:53:38.853Z,101444.25
2022-12-18T14:56:15.859Z,101377.44
2022-12-18T14:58:47.245Z,101443.38
2022-12-18T15:01:20.917Z,101433.78
2022-12-18T15:03:48.472Z,101437.28
2022-12-18T15:06:20.153Z,101449.56
2022-12-18T15:08:47.597Z,101437.47
2022-12-18T15:11:35.609Z,101383.50
2022-12-18T15:14:23.927Z,101446.06
2022-12-18T15:16:55.263Z,101442.56
2022-12-18T15:19:23.090Z,101437.31
2022-12-18T15:21:50.867Z,101444.31
2022-12-18T15:24:22.702Z,101433.78
2022-12-18T15:26:51.707Z,101438.19
2022-12-18T15:29:23.410Z,101429.44
2022-12-18T15:32:00.918Z,101346.88
2022-12-18T15:34:28.360Z,101425.94
2022-12-18T15:36:55.956Z,101424.19
2022-12-18T15:39:23.457Z,101431.19
2022-12-18T15:42:10.160Z,101426.81
2022-12-18T15:44:37.689Z,101417.16
2022-12-18T15:47:05.821Z,101409.28
2022-12-18T15:49:33.278Z,101412.78
2022-12-18T15:52:02.012Z,101404.91
2022-12-18T15:54:47.173Z,101406.66
2022-12-18T15:57:24.940Z,101407.56
2022-12-18T15:59:53.510Z,101397.91
2022-12-18T16:02:21.175Z,101391.75
2022-12-18T16:04:48.682Z,101397.00
2022-12-18T16:07:20.635Z,101397.88
2022-12-18T16:09:53.114Z,101390.84
2022-12-18T16:12:23.156Z,101390.84
2022-12-18T16:14:50.609Z,101394.41
2022-12-18T16:17:18.047Z,101393.50
2022-12-18T16:19:45.667Z,101384.78
2022-12-18T16:22:19.923Z,101390.88
2022-12-18T16:24:47.381Z,101390.88
2022-12-18T16:27:14.811Z,101382.97
2022-12-18T16:29:43.593Z,101381.22
2022-12-18T16:32:13.301Z,101369.03
2022-12-18T16:34:40.752Z,101356.75
2022-12-18T16:37:08.947Z,101358.44
2022-12-18T16:39:36.595Z,101320.19
2022-12-18T16:42:05.674Z,101361.94
2022-12-18T16:44:33.804Z,101369.00
2022-12-18T16:47:03.773Z,101366.38
2022-12-18T16:49:31.352Z,101365.47
2022-12-18T16:51:58.975Z,101361.94
2022-12-18T16:54:26.425Z,101359.31
2022-12-18T16:56:53.848Z,101360.28
2022-12-18T16:59:21.388Z,101361.06
2022-12-18T17:01:49.406Z,101350.59
2022-12-18T17:04:18.258Z,101355.84
2022-12-18T17:06:51.477Z,101245.50
2022-12-18T17:09:20.281Z,101338.28
2022-12-18T17:11:47.709Z,101341.78
2022-12-18T17:14:16.052Z,101338.28
2022-12-18T17:16:43.600Z,101342.66
2022-12-18T17:19:16.789Z,101349.66
2022-12-18T17:21:46.435Z,101363.72
2022-12-18T17:24:13.872Z,101354.94
2022-12-18T17:26:41.430Z,101348.78
2022-12-18T17:29:09.073Z,101347.03
2022-12-18T17:31:36.535Z,101336.53
2022-12-18T17:34:04.258Z,101337.44
2022-12-18T17:36:32.209Z,101321.66
2022-12-18T17:39:02.108Z,101343.53
2022-12-18T17:41:30.084Z,101329.53
2022-12-18T17:43:58.711Z,101267.06
2022-12-18T17:46:26.718Z,101271.44
2022-12-18T17:48:56.059Z,101326.88
2022-12-18T17:51:23.675Z,101324.28
2022-12-18T17:53:51.192Z,101321.63
2022-12-18T17:56:21.432Z,101319.00
2022-12-18T17:58:50.225Z,101317.22
2022-12-18T18:01:18.624Z,101321.66
2022-12-18T18:03:50.952Z,101314.63
2022-12-18T18:06:21.013Z,101318.09
2022-12-18T18:08:48.653Z,101253.84
2022-12-18T18:11:34.561Z,101308.47
2022-12-18T18:14:05.322Z,101312.81
2022-12-18T18:16:34.846Z,101277.34
2022-12-18T18:19:03.042Z,101253.81
2022-12-18T18:21:30.531Z,101264.34
2022-12-18T18:24:00.557Z,101312.81
2022-12-18T18:26:29.219Z,101308.47
2022-12-18T18:28:57.855Z,101301.41
2022-12-18T18:31:27.174Z,101291.81
2022-12-18T18:33:54.673Z,101293.53
2022-12-18T18:36:22.269Z,101293.53
2022-12-18T18:38:49.692Z,101287.47
2022-12-18T18:41:17.503Z,101293.50
2022-12-18T18:43:45.276Z,101278.59
2022-12-18T18:46:13.689Z,101275.09
2022-12-18T18:48:43.777Z,101266.38
2022-12-18T18:51:11.915Z,101268.97
2022-12-18T18:53:42.885Z,101267.22
2022-12-18T18:56:50.172Z,101275.09
2022-12-18T18:58:59.140Z,101261.97
2022-12-18T19:01:26.736Z,101257.59
2022-12-18T19:03:55.566Z,101254.06
2022-12-18T19:06:24.232Z,101247.97
2022-12-18T19:08:52.140Z,101241.84
2022-12-18T19:11:37.433Z,101253.16
2022-12-18T19:14:05.297Z,101258.44
2022-12-18T19:16:32.943Z,101266.31
2022-12-18T19:19:02.279Z,101253.19
2022-12-18T19:21:31.252Z,101248.78
2022-12-18T19:24:01.439Z,101256.69
2022-12-18T19:26:29.070Z,101252.31
2022-12-18T19:29:01.791Z,101249.66
2022-12-18T19:31:34.759Z,101247.94
2022-12-18T19:34:04.796Z,101227.09
2022-12-18T19:36:35.118Z,101240.91
2022-12-18T19:39:02.600Z,101236.53
2022-12-18T19:41:32.822Z,101188.88
2022-12-18T19:44:00.923Z,101166.31
2022-12-18T19:46:35.430Z,101226.91
2022-12-18T19:49:04.284Z,101246.19
2022-12-18T19:51:32.299Z,101240.06
2022-12-18T19:54:01.690Z,101169.81
2022-12-18T19:56:31.339Z,101239.19
2022-12-18T19:58:58.818Z,101255.84
2022-12-18T20:01:26.511Z,101256.72
2022-12-18T20:03:55.289Z,101263.75
2022-12-18T20:06:28.357Z,101257.59
2022-12-18T20:09:00.267Z,101262.84
2022-12-18T20:11:28.771Z,101257.59
2022-12-18T20:13:56.221Z,101267.19
2022-12-18T20:16:23.708Z,101253.19
2022-12-18T20:18:51.458Z,101240.88
2022-12-18T20:21:19.880Z,101246.19
2022-12-18T20:23:48.663Z,101232.16
2022-12-18T20:26:16.289Z,101240.88
2022-12-18T20:28:43.736Z,101230.38
2022-12-18T20:31:13.549Z,101206.91
2022-12-18T20:33:42.389Z,101169.59
2022-12-18T20:36:14.216Z,101232.94
2022-12-18T20:38:42.919Z,101186.22
2022-12-18T20:41:15.234Z,101241.75
2022-12-18T20:43:43.311Z,101161.88
2022-12-18T20:46:11.486Z,101251.38
2022-12-18T20:48:38.983Z,101266.28
2022-12-18T20:51:08.565Z,101266.25
2022-12-18T20:53:36.572Z,101268.94
2022-12-18T20:56:07.289Z,101222.88
2022-12-18T20:58:36.086Z,101259.25
2022-12-18T21:01:05.060Z,101251.31
2022-12-18T21:03:32.596Z,101250.47
2022-12-18T21:06:00.079Z,101252.28
2022-12-18T21:08:27.551Z,101251.31
2022-12-18T21:10:55.713Z,101258.38
2022-12-18T21:13:23.192Z,101243.41
2022-12-18T21:15:54.019Z,101232.91
2022-12-18T21:18:21.466Z,101239.97
2022-12-18T21:20:49.132Z,101243.47
2022-12-18T21:23:17.052Z,101235.56
2022-12-18T21:25:45.624Z,101232.94
2022-12-18T21:28:14.356Z,101240.84
2022-12-18T21:30:41.953Z,101243.47
2022-12-18T21:33:10.760Z,101240.81
2022-12-18T21:35:38.207Z,101246.09
2022-12-18T21:38:05.872Z,101238.22
2022-12-18T21:40:33.555Z,101220.72
2022-12-18T21:43:18.747Z,101226.88
2022-12-18T21:45:46.273Z,101222.47
2022-12-18T21:48:15.111Z,101220.72
2022-12-18T21:50:42.555Z,101214.63
2022-12-18T21:53:10.060Z,101221.63
2022-12-18T21:55:37.540Z,101218.09
2022-12-18T21:58:04.969Z,101211.06
2022-12-18T22:00:32.397Z,101218.97
2022-12-18T22:03:08.711Z,101211.94
2022-12-18T22:05:49.666Z,101199.72
2022-12-18T22:08:28.289Z,101206.69
2022-12-18T22:10:55.760Z,101216.38
2022-12-18T22:13:23.347Z,101198.81
2022-12-18T22:15:50.951Z,101178.75
2022-12-18T22:18:18.426Z,101171.63
2022-12-18T22:20:45.875Z,101190.00
2022-12-18T22:23:14.678Z,101169.16
2022-12-18T22:25:42.126Z,101191.72
2022-12-18T22:28:35.460Z,101164.78
2022-12-18T22:31:02.953Z,101191.78
2022-12-18T22:33:30.437Z,101198.81
2022-12-18T22:35:57.899Z,101183.91
2022-12-18T22:38:26.737Z,101180.34
2022-12-18T22:40:55.277Z,101173.38
2022-12-18T22:43:22.711Z,101176.88
2022-12-18T22:45:50.174Z,101167.22
2022-12-18T22:48:17.683Z,101160.19
2022-12-18T22:50:45.137Z,101157.56
2022-12-18T22:53:12.605Z,101169.88
2022-12-18T22:55:41.405Z,101170.72
2022-12-18T22:58:08.889Z,101157.56
2022-12-18T23:00:36.314Z,101161.94
2022-12-18T23:03:03.885Z,101158.47
2022-12-18T23:05:34.644Z,101152.28
2022-12-18T23:08:02.132Z,101144.41
2022-12-18T23:10:29.566Z,101136.50
2022-12-18T23:12:58.349Z,101137.34
2022-12-18T23:15:28.141Z,101135.56
2022-12-18T23:17:56.016Z,101136.47
2022-12-18T23:20:23.436Z,101132.09
2022-12-18T23:22:50.880Z,101132.09
2022-12-18T23:25:18.332Z,101158.41
2022-12-18T23:27:45.807Z,101125.06
2022-12-18T23:30:14.937Z,101125.03
2022-12-18T23:32:42.436Z,101113.69
2022-12-18T23:35:10.173Z,101118.00
2022-12-18T23:37:58.586Z,101123.25
2022-12-18T23:40:27.086Z,101117.09
2022-12-18T23:42:54.533Z,101114.50
2022-12-18T23:45:23.319Z,101123.19
2022-12-18T23:47:51.111Z,101119.66
2022-12-18T23:50:18.920Z,101087.59
2022-12-18T23:52:49.575Z,101120.56
2022-12-18T23:55:17.255Z,101112.66
2022-12-18T23:57:44.679Z,101108.25
